sensor_id;sensor_type;location;lat;lon;timestamp;P1;durP1;ratioP1;P2;durP2;ratioP2
69573;SDS011;62840;52.366;5.980;2022-11-15T00:02:15;16.83;;;6.77;;
69573;SDS011;62840;52.366;5.980;2022-11-15T00:04:41;16.23;;;6.85;;
69573;SDS011;62840;52.366;5.980;2022-11-15T00:07:09;17.77;;;7.53;;
69573;SDS011;62840;52.366;5.980;2022-11-15T00:09:35;17.45;;;7.40;;
69573;SDS011;62840;52.366;5.980;2022-11-15T00:12:01;16.95;;;7.18;;
69573;SDS011;62840;52.366;5.980;2022-11-15T00:14:26;15.80;;;6.93;;
69573;SDS011;62840;52.366;5.980;2022-11-15T00:16:52;17.88;;;7.55;;
69573;SDS011;62840;52.366;5.980;2022-11-15T00:19:18;18.73;;;7.87;;
69573;SDS011;62840;52.366;5.980;2022-11-15T00:21:43;18.08;;;8.00;;
69573;SDS011;62840;52.366;5.980;2022-11-15T00:24:12;16.30;;;7.27;;
69573;SDS011;62840;52.366;5.980;2022-11-15T00:26:37;15.68;;;7.00;;
69573;SDS011;62840;52.366;5.980;2022-11-15T00:29:03;16.30;;;7.20;;
69573;SDS011;62840;52.366;5.980;2022-11-15T00:31:29;17.25;;;7.93;;
69573;SDS011;62840;52.366;5.980;2022-11-15T00:33:55;16.48;;;7.68;;
69573;SDS011;62840;52.366;5.980;2022-11-15T00:36:20;19.87;;;7.37;;
69573;SDS011;62840;52.366;5.980;2022-11-15T00:38:46;18.45;;;7.20;;
69573;SDS011;62840;52.366;5.980;2022-11-15T00:41:14;22.10;;;8.53;;
69573;SDS011;62840;52.366;5.980;2022-11-15T00:43:40;18.75;;;7.88;;
69573;SDS011;62840;52.366;5.980;2022-11-15T00:46:06;18.05;;;7.40;;
69573;SDS011;62840;52.366;5.980;2022-11-15T00:48:32;18.85;;;8.00;;
69573;SDS011;62840;52.366;5.980;2022-11-15T00:51:00;18.50;;;7.90;;
69573;SDS011;62840;52.366;5.980;2022-11-15T00:53:26;18.13;;;7.65;;
69573;SDS011;62840;52.366;5.980;2022-11-15T00:55:52;17.83;;;7.70;;
69573;SDS011;62840;52.366;5.980;2022-11-15T00:58:20;18.73;;;7.93;;
69573;SDS011;62840;52.366;5.980;2022-11-15T01:00:46;18.75;;;7.47;;
69573;SDS011;62840;52.366;5.980;2022-11-15T01:03:12;17.90;;;8.13;;
69573;SDS011;62840;52.366;5.980;2022-11-15T01:05:38;19.65;;;7.90;;
69573;SDS011;62840;52.366;5.980;2022-11-15T01:08:04;20.50;;;8.43;;
69573;SDS011;62840;52.366;5.980;2022-11-15T01:10:30;20.17;;;8.10;;
69573;SDS011;62840;52.366;5.980;2022-11-15T01:12:55;19.45;;;8.45;;
69573;SDS011;62840;52.366;5.980;2022-11-15T01:15:24;22.33;;;8.73;;
69573;SDS011;62840;52.366;5.980;2022-11-15T01:17:50;19.23;;;8.23;;
69573;SDS011;62840;52.366;5.980;2022-11-15T01:20:16;20.90;;;7.88;;
69573;SDS011;62840;52.366;5.980;2022-11-15T01:22:42;21.10;;;8.30;;
69573;SDS011;62840;52.366;5.980;2022-11-15T01:25:07;20.93;;;8.97;;
69573;SDS011;62840;52.366;5.980;2022-11-15T01:27:33;21.25;;;8.00;;
69573;SDS011;62840;52.366;5.980;2022-11-15T01:29:59;21.03;;;8.00;;
69573;SDS011;62840;52.366;5.980;2022-11-15T01:32:27;20.05;;;8.50;;
69573;SDS011;62840;52.366;5.980;2022-11-15T01:34:53;24.15;;;8.85;;
69573;SDS011;62840;52.366;5.980;2022-11-15T01:37:18;20.65;;;9.13;;
69573;SDS011;62840;52.366;5.980;2022-11-15T01:39:44;22.13;;;9.50;;
69573;SDS011;62840;52.366;5.980;2022-11-15T01:42:11;21.80;;;8.38;;
69573;SDS011;62840;52.366;5.980;2022-11-15T01:44:39;20.30;;;8.10;;
69573;SDS011;62840;52.366;5.980;2022-11-15T01:47:10;23.85;;;8.13;;
69573;SDS011;62840;52.366;5.980;2022-11-15T01:49:45;21.17;;;8.17;;
69573;SDS011;62840;52.366;5.980;2022-11-15T01:52:21;21.92;;;8.45;;
69573;SDS011;62840;52.366;5.980;2022-11-15T01:54:53;20.10;;;8.48;;
69573;SDS011;62840;52.366;5.980;2022-11-15T01:57:26;22.70;;;8.38;;
69573;SDS011;62840;52.366;5.980;2022-11-15T01:59:52;23.75;;;9.15;;
69573;SDS011;62840;52.366;5.980;2022-11-15T02:02:20;21.27;;;8.80;;
69573;SDS011;62840;52.366;5.980;2022-11-15T02:04:48;21.05;;;8.82;;
69573;SDS011;62840;52.366;5.980;2022-11-15T02:07:15;22.60;;;9.02;;
69573;SDS011;62840;52.366;5.980;2022-11-15T02:09:44;21.55;;;8.70;;
69573;SDS011;62840;52.366;5.980;2022-11-15T02:12:12;23.40;;;9.00;;
69573;SDS011;62840;52.366;5.980;2022-11-15T02:14:42;23.20;;;8.13;;
69573;SDS011;62840;52.366;5.980;2022-11-15T02:17:25;22.42;;;8.75;;
69573;SDS011;62840;52.366;5.980;2022-11-15T02:20:30;20.08;;;8.18;;
69573;SDS011;62840;52.366;5.980;2022-11-15T02:27:05;19.10;;;8.30;;
69573;SDS011;62840;52.366;5.980;2022-11-15T02:30:23;20.98;;;7.55;;
69573;SDS011;62840;52.366;5.980;2022-11-15T02:33:01;18.88;;;8.07;;
69573;SDS011;62840;52.366;5.980;2022-11-15T02:35:45;21.30;;;8.25;;
69573;SDS011;62840;52.366;5.980;2022-11-15T02:38:22;19.08;;;8.50;;
69573;SDS011;62840;52.366;5.980;2022-11-15T02:41:00;18.13;;;7.47;;
69573;SDS011;62840;52.366;5.980;2022-11-15T02:43:33;20.48;;;9.13;;
69573;SDS011;62840;52.366;5.980;2022-11-15T02:46:09;20.40;;;8.10;;
69573;SDS011;62840;52.366;5.980;2022-11-15T02:48:43;20.15;;;7.95;;
69573;SDS011;62840;52.366;5.980;2022-11-15T02:51:11;17.98;;;8.23;;
69573;SDS011;62840;52.366;5.980;2022-11-15T02:53:38;17.23;;;7.50;;
69573;SDS011;62840;52.366;5.980;2022-11-15T02:56:05;18.35;;;8.25;;
69573;SDS011;62840;52.366;5.980;2022-11-15T02:58:48;19.52;;;8.15;;
69573;SDS011;62840;52.366;5.980;2022-11-15T03:01:43;21.53;;;8.03;;
69573;SDS011;62840;52.366;5.980;2022-11-15T03:04:29;17.13;;;7.68;;
69573;SDS011;62840;52.366;5.980;2022-11-15T03:07:10;19.83;;;8.48;;
69573;SDS011;62840;52.366;5.980;2022-11-15T03:09:45;18.70;;;8.20;;
69573;SDS011;62840;52.366;5.980;2022-11-15T03:12:27;18.85;;;8.48;;
69573;SDS011;62840;52.366;5.980;2022-11-15T03:15:04;18.58;;;8.05;;
69573;SDS011;62840;52.366;5.980;2022-11-15T03:17:40;18.00;;;8.00;;
69573;SDS011;62840;52.366;5.980;2022-11-15T03:20:16;17.90;;;8.20;;
69573;SDS011;62840;52.366;5.980;2022-11-15T03:22:44;20.05;;;8.25;;
69573;SDS011;62840;52.366;5.980;2022-11-15T03:25:16;18.42;;;8.10;;
69573;SDS011;62840;52.366;5.980;2022-11-15T03:27:49;20.20;;;9.00;;
69573;SDS011;62840;52.366;5.980;2022-11-15T03:30:20;22.05;;;8.80;;
69573;SDS011;62840;52.366;5.980;2022-11-15T03:32:49;20.15;;;8.95;;
69573;SDS011;62840;52.366;5.980;2022-11-15T03:35:21;16.08;;;7.88;;
69573;SDS011;62840;52.366;5.980;2022-11-15T03:37:51;20.10;;;9.18;;
69573;SDS011;62840;52.366;5.980;2022-11-15T03:40:25;18.87;;;8.33;;
69573;SDS011;62840;52.366;5.980;2022-11-15T03:43:03;17.13;;;7.80;;
69573;SDS011;62840;52.366;5.980;2022-11-15T03:45:41;18.63;;;8.52;;
69573;SDS011;62840;52.366;5.980;2022-11-15T03:48:20;18.77;;;8.82;;
69573;SDS011;62840;52.366;5.980;2022-11-15T03:50:51;18.55;;;8.20;;
69573;SDS011;62840;52.366;5.980;2022-11-15T03:53:18;17.83;;;9.05;;
69573;SDS011;62840;52.366;5.980;2022-11-15T03:55:44;17.83;;;8.35;;
69573;SDS011;62840;52.366;5.980;2022-11-15T03:58:09;17.55;;;8.25;;
69573;SDS011;62840;52.366;5.980;2022-11-15T04:00:35;17.40;;;8.70;;
69573;SDS011;62840;52.366;5.980;2022-11-15T04:03:01;21.25;;;9.45;;
69573;SDS011;62840;52.366;5.980;2022-11-15T04:05:29;19.13;;;9.50;;
69573;SDS011;62840;52.366;5.980;2022-11-15T04:07:55;16.25;;;8.85;;
69573;SDS011;62840;52.366;5.980;2022-11-15T04:10:21;15.67;;;8.57;;
69573;SDS011;62840;52.366;5.980;2022-11-15T04:12:46;19.85;;;8.85;;
69573;SDS011;62840;52.366;5.980;2022-11-15T04:15:13;17.98;;;8.57;;
69573;SDS011;62840;52.366;5.980;2022-11-15T04:17:41;22.27;;;8.93;;
69573;SDS011;62840;52.366;5.980;2022-11-15T04:20:11;17.10;;;8.45;;
69573;SDS011;62840;52.366;5.980;2022-11-15T04:22:43;19.45;;;9.35;;
69573;SDS011;62840;52.366;5.980;2022-11-15T04:25:08;19.30;;;8.50;;
69573;SDS011;62840;52.366;5.980;2022-11-15T04:27:34;17.07;;;8.90;;
69573;SDS011;62840;52.366;5.980;2022-11-15T04:30:00;19.13;;;9.30;;
69573;SDS011;62840;52.366;5.980;2022-11-15T04:32:26;18.77;;;8.83;;
69573;SDS011;62840;52.366;5.980;2022-11-15T04:34:51;19.67;;;8.82;;
69573;SDS011;62840;52.366;5.980;2022-11-15T04:37:17;16.40;;;8.43;;
69573;SDS011;62840;52.366;5.980;2022-11-15T04:39:45;17.33;;;8.13;;
69573;SDS011;62840;52.366;5.980;2022-11-15T04:42:11;17.83;;;8.48;;
69573;SDS011;62840;52.366;5.980;2022-11-15T04:44:37;18.90;;;9.03;;
69573;SDS011;62840;52.366;5.980;2022-11-15T04:47:03;16.83;;;8.63;;
69573;SDS011;62840;52.366;5.980;2022-11-15T04:49:28;18.75;;;8.55;;
69573;SDS011;62840;52.366;5.980;2022-11-15T04:51:54;16.20;;;8.07;;
69573;SDS011;62840;52.366;5.980;2022-11-15T04:54:20;17.60;;;8.52;;
69573;SDS011;62840;52.366;5.980;2022-11-15T04:56:48;18.88;;;8.73;;
69573;SDS011;62840;52.366;5.980;2022-11-15T04:59:14;17.35;;;8.88;;
69573;SDS011;62840;52.366;5.980;2022-11-15T05:01:40;19.73;;;8.43;;
69573;SDS011;62840;52.366;5.980;2022-11-15T05:04:05;17.08;;;8.10;;
69573;SDS011;62840;52.366;5.980;2022-11-15T05:06:32;17.85;;;8.43;;
69573;SDS011;62840;52.366;5.980;2022-11-15T05:08:58;18.00;;;8.40;;
69573;SDS011;62840;52.366;5.980;2022-11-15T05:11:24;18.98;;;8.35;;
69573;SDS011;62840;52.366;5.980;2022-11-15T05:13:53;19.05;;;8.98;;
69573;SDS011;62840;52.366;5.980;2022-11-15T05:16:19;17.48;;;8.55;;
69573;SDS011;62840;52.366;5.980;2022-11-15T05:18:44;17.05;;;8.38;;
69573;SDS011;62840;52.366;5.980;2022-11-15T05:21:11;15.10;;;7.70;;
69573;SDS011;62840;52.366;5.980;2022-11-15T05:23:39;16.83;;;7.95;;
69573;SDS011;62840;52.366;5.980;2022-11-15T05:26:06;15.75;;;8.05;;
69573;SDS011;62840;52.366;5.980;2022-11-15T05:28:33;16.23;;;8.23;;
69573;SDS011;62840;52.366;5.980;2022-11-15T05:31:03;17.15;;;8.80;;
69573;SDS011;62840;52.366;5.980;2022-11-15T05:33:31;18.58;;;8.57;;
69573;SDS011;62840;52.366;5.980;2022-11-15T05:35:59;16.23;;;7.93;;
69573;SDS011;62840;52.366;5.980;2022-11-15T05:38:32;15.45;;;7.80;;
69573;SDS011;62840;52.366;5.980;2022-11-15T05:40:58;15.20;;;7.63;;
69573;SDS011;62840;52.366;5.980;2022-11-15T05:43:25;17.25;;;8.25;;
69573;SDS011;62840;52.366;5.980;2022-11-15T05:45:54;15.30;;;8.52;;
69573;SDS011;62840;52.366;5.980;2022-11-15T05:48:22;17.17;;;8.55;;
69573;SDS011;62840;52.366;5.980;2022-11-15T05:50:48;17.45;;;8.38;;
69573;SDS011;62840;52.366;5.980;2022-11-15T05:53:15;15.10;;;7.97;;
69573;SDS011;62840;52.366;5.980;2022-11-15T05:55:46;13.63;;;7.30;;
69573;SDS011;62840;52.366;5.980;2022-11-15T05:58:13;16.37;;;8.03;;
69573;SDS011;62840;52.366;5.980;2022-11-15T06:00:38;15.65;;;7.53;;
69573;SDS011;62840;52.366;5.980;2022-11-15T06:03:05;17.60;;;8.13;;
69573;SDS011;62840;52.366;5.980;2022-11-15T06:05:34;17.57;;;8.67;;
69573;SDS011;62840;52.366;5.980;2022-11-15T06:08:00;17.25;;;8.07;;
69573;SDS011;62840;52.366;5.980;2022-11-15T06:10:26;16.45;;;8.00;;
69573;SDS011;62840;52.366;5.980;2022-11-15T06:12:56;16.00;;;7.65;;
69573;SDS011;62840;52.366;5.980;2022-11-15T06:15:22;15.32;;;7.55;;
69573;SDS011;62840;52.366;5.980;2022-11-15T06:17:48;18.48;;;7.90;;
69573;SDS011;62840;52.366;5.980;2022-11-15T06:20:14;16.87;;;7.83;;
69573;SDS011;62840;52.366;5.980;2022-11-15T06:22:43;18.13;;;8.40;;
69573;SDS011;62840;52.366;5.980;2022-11-15T06:25:09;14.65;;;7.60;;
69573;SDS011;62840;52.366;5.980;2022-11-15T06:27:34;14.17;;;7.47;;
69573;SDS011;62840;52.366;5.980;2022-11-15T06:30:00;13.52;;;7.43;;
69573;SDS011;62840;52.366;5.980;2022-11-15T06:32:26;15.57;;;7.83;;
69573;SDS011;62840;52.366;5.980;2022-11-15T06:34:53;16.35;;;7.80;;
69573;SDS011;62840;52.366;5.980;2022-11-15T06:37:19;13.80;;;7.60;;
69573;SDS011;62840;52.366;5.980;2022-11-15T06:39:47;15.33;;;7.30;;
69573;SDS011;62840;52.366;5.980;2022-11-15T06:42:13;13.82;;;7.35;;
69573;SDS011;62840;52.366;5.980;2022-11-15T06:44:39;14.20;;;7.17;;
69573;SDS011;62840;52.366;5.980;2022-11-15T06:47:04;16.17;;;7.32;;
69573;SDS011;62840;52.366;5.980;2022-11-15T06:49:30;15.57;;;7.77;;
69573;SDS011;62840;52.366;5.980;2022-11-15T06:51:56;14.05;;;6.95;;
69573;SDS011;62840;52.366;5.980;2022-11-15T06:54:22;14.57;;;8.13;;
69573;SDS011;62840;52.366;5.980;2022-11-15T06:56:50;14.90;;;7.13;;
69573;SDS011;62840;52.366;5.980;2022-11-15T06:59:16;13.45;;;6.88;;
69573;SDS011;62840;52.366;5.980;2022-11-15T07:01:41;14.50;;;7.30;;
69573;SDS011;62840;52.366;5.980;2022-11-15T07:04:07;13.55;;;7.72;;
69573;SDS011;62840;52.366;5.980;2022-11-15T07:06:33;15.47;;;7.40;;
69573;SDS011;62840;52.366;5.980;2022-11-15T07:08:58;15.00;;;7.53;;
69573;SDS011;62840;52.366;5.980;2022-11-15T07:11:24;14.83;;;7.37;;
69573;SDS011;62840;52.366;5.980;2022-11-15T07:13:52;16.20;;;7.88;;
69573;SDS011;62840;52.366;5.980;2022-11-15T07:16:18;16.13;;;7.63;;
69573;SDS011;62840;52.366;5.980;2022-11-15T07:18:44;16.85;;;7.65;;
69573;SDS011;62840;52.366;5.980;2022-11-15T07:21:10;15.07;;;7.43;;
69573;SDS011;62840;52.366;5.980;2022-11-15T07:23:36;13.48;;;7.22;;
69573;SDS011;62840;52.366;5.980;2022-11-15T07:26:03;14.65;;;7.47;;
69573;SDS011;62840;52.366;5.980;2022-11-15T07:28:29;13.00;;;6.82;;
69573;SDS011;62840;52.366;5.980;2022-11-15T07:31:01;14.25;;;7.55;;
69573;SDS011;62840;52.366;5.980;2022-11-15T07:33:28;12.70;;;7.03;;
69573;SDS011;62840;52.366;5.980;2022-11-15T07:35:53;14.82;;;7.28;;
69573;SDS011;62840;52.366;5.980;2022-11-15T07:38:23;13.55;;;6.65;;
69573;SDS011;62840;52.366;5.980;2022-11-15T07:40:55;13.10;;;6.80;;
69573;SDS011;62840;52.366;5.980;2022-11-15T07:43:22;13.10;;;7.43;;
69573;SDS011;62840;52.366;5.980;2022-11-15T07:45:48;14.63;;;7.50;;
69573;SDS011;62840;52.366;5.980;2022-11-15T07:48:16;14.33;;;7.40;;
69573;SDS011;62840;52.366;5.980;2022-11-15T07:50:42;15.18;;;7.57;;
69573;SDS011;62840;52.366;5.980;2022-11-15T07:53:08;13.88;;;6.88;;
69573;SDS011;62840;52.366;5.980;2022-11-15T07:55:35;13.68;;;7.28;;
69573;SDS011;62840;52.366;5.980;2022-11-15T07:58:02;13.88;;;7.20;;
69573;SDS011;62840;52.366;5.980;2022-11-15T08:00:29;14.68;;;6.90;;
69573;SDS011;62840;52.366;5.980;2022-11-15T08:03:01;15.32;;;7.30;;
69573;SDS011;62840;52.366;5.980;2022-11-15T08:05:31;14.82;;;8.00;;
69573;SDS011;62840;52.366;5.980;2022-11-15T08:07:57;13.70;;;6.90;;
69573;SDS011;62840;52.366;5.980;2022-11-15T08:10:23;15.95;;;7.28;;
69573;SDS011;62840;52.366;5.980;2022-11-15T08:12:56;15.68;;;8.15;;
69573;SDS011;62840;52.366;5.980;2022-11-15T08:15:23;18.75;;;7.82;;
69573;SDS011;62840;52.366;5.980;2022-11-15T08:17:52;14.93;;;7.27;;
69573;SDS011;62840;52.366;5.980;2022-11-15T08:20:19;15.38;;;7.65;;
69573;SDS011;62840;52.366;5.980;2022-11-15T08:22:48;18.33;;;7.60;;
69573;SDS011;62840;52.366;5.980;2022-11-15T08:25:13;14.60;;;7.43;;
69573;SDS011;62840;52.366;5.980;2022-11-15T08:27:40;14.18;;;7.20;;
69573;SDS011;62840;52.366;5.980;2022-11-15T08:30:06;16.52;;;7.90;;
69573;SDS011;62840;52.366;5.980;2022-11-15T08:32:33;14.77;;;7.53;;
69573;SDS011;62840;52.366;5.980;2022-11-15T08:34:59;14.97;;;7.63;;
69573;SDS011;62840;52.366;5.980;2022-11-15T08:37:25;15.77;;;7.85;;
69573;SDS011;62840;52.366;5.980;2022-11-15T08:39:53;17.27;;;7.70;;
69573;SDS011;62840;52.366;5.980;2022-11-15T08:42:19;16.33;;;8.00;;
69573;SDS011;62840;52.366;5.980;2022-11-15T08:44:44;19.80;;;8.40;;
69573;SDS011;62840;52.366;5.980;2022-11-15T08:47:10;16.98;;;7.80;;
69573;SDS011;62840;52.366;5.980;2022-11-15T08:49:37;16.13;;;8.10;;
69573;SDS011;62840;52.366;5.980;2022-11-15T08:52:02;15.73;;;7.60;;
69573;SDS011;62840;52.366;5.980;2022-11-15T08:54:29;13.73;;;8.27;;
69573;SDS011;62840;52.366;5.980;2022-11-15T08:56:57;16.75;;;7.53;;
69573;SDS011;62840;52.366;5.980;2022-11-15T08:59:23;15.10;;;7.43;;
69573;SDS011;62840;52.366;5.980;2022-11-15T09:01:48;16.30;;;8.38;;
69573;SDS011;62840;52.366;5.980;2022-11-15T09:04:14;15.70;;;8.48;;
69573;SDS011;62840;52.366;5.980;2022-11-15T09:06:40;16.83;;;9.05;;
69573;SDS011;62840;52.366;5.980;2022-11-15T09:09:06;17.25;;;8.82;;
69573;SDS011;62840;52.366;5.980;2022-11-15T09:11:32;16.55;;;8.30;;
69573;SDS011;62840;52.366;5.980;2022-11-15T09:14:00;16.65;;;8.25;;
69573;SDS011;62840;52.366;5.980;2022-11-15T09:16:26;14.95;;;8.57;;
69573;SDS011;62840;52.366;5.980;2022-11-15T09:18:55;15.90;;;7.72;;
69573;SDS011;62840;52.366;5.980;2022-11-15T09:21:20;15.98;;;8.60;;
69573;SDS011;62840;52.366;5.980;2022-11-15T09:23:46;16.10;;;8.13;;
69573;SDS011;62840;52.366;5.980;2022-11-15T09:26:14;16.13;;;8.50;;
69573;SDS011;62840;52.366;5.980;2022-11-15T09:28:40;14.98;;;8.38;;
69573;SDS011;62840;52.366;5.980;2022-11-15T09:31:08;16.40;;;8.03;;
69573;SDS011;62840;52.366;5.980;2022-11-15T09:33:35;15.02;;;8.00;;
69573;SDS011;62840;52.366;5.980;2022-11-15T09:36:02;16.17;;;7.55;;
69573;SDS011;62840;52.366;5.980;2022-11-15T09:38:30;14.65;;;7.85;;
69573;SDS011;62840;52.366;5.980;2022-11-15T09:41:05;13.13;;;7.40;;
69573;SDS011;62840;52.366;5.980;2022-11-15T09:44:05;13.45;;;7.18;;
69573;SDS011;62840;52.366;5.980;2022-11-15T09:46:56;12.77;;;6.68;;
69573;SDS011;62840;52.366;5.980;2022-11-15T09:49:40;12.98;;;7.13;;
69573;SDS011;62840;52.366;5.980;2022-11-15T09:52:07;13.25;;;6.80;;
69573;SDS011;62840;52.366;5.980;2022-11-15T09:54:35;12.23;;;6.57;;
69573;SDS011;62840;52.366;5.980;2022-11-15T09:57:04;15.10;;;6.45;;
69573;SDS011;62840;52.366;5.980;2022-11-15T09:59:43;12.50;;;6.40;;
69573;SDS011;62840;52.366;5.980;2022-11-15T10:02:33;13.98;;;6.10;;
69573;SDS011;62840;52.366;5.980;2022-11-15T10:05:16;14.25;;;6.70;;
69573;SDS011;62840;52.366;5.980;2022-11-15T10:07:46;11.57;;;6.20;;
69573;SDS011;62840;52.366;5.980;2022-11-15T10:10:25;11.77;;;5.97;;
69573;SDS011;62840;52.366;5.980;2022-11-15T10:13:00;12.13;;;5.78;;
69573;SDS011;62840;52.366;5.980;2022-11-15T10:15:27;14.05;;;5.80;;
69573;SDS011;62840;52.366;5.980;2022-11-15T10:18:03;12.07;;;5.60;;
69573;SDS011;62840;52.366;5.980;2022-11-15T10:20:41;10.73;;;5.55;;
69573;SDS011;62840;52.366;5.980;2022-11-15T10:23:13;11.18;;;5.70;;
69573;SDS011;62840;52.366;5.980;2022-11-15T10:25:42;11.43;;;5.50;;
69573;SDS011;62840;52.366;5.980;2022-11-15T10:28:09;8.50;;;5.00;;
69573;SDS011;62840;52.366;5.980;2022-11-15T10:30:42;11.07;;;5.38;;
69573;SDS011;62840;52.366;5.980;2022-11-15T10:33:19;11.07;;;5.28;;
69573;SDS011;62840;52.366;5.980;2022-11-15T10:38:52;10.05;;;4.63;;
69573;SDS011;62840;52.366;5.980;2022-11-15T10:41:21;9.35;;;4.50;;
69573;SDS011;62840;52.366;5.980;2022-11-15T10:44:01;10.48;;;4.95;;
69573;SDS011;62840;52.366;5.980;2022-11-15T10:46:37;8.95;;;4.35;;
69573;SDS011;62840;52.366;5.980;2022-11-15T10:49:13;8.43;;;4.57;;
69573;SDS011;62840;52.366;5.980;2022-11-15T10:51:43;8.38;;;4.60;;
69573;SDS011;62840;52.366;5.980;2022-11-15T10:54:13;11.68;;;4.78;;
69573;SDS011;62840;52.366;5.980;2022-11-15T10:56:59;8.82;;;4.25;;
69573;SDS011;62840;52.366;5.980;2022-11-15T10:59:33;8.88;;;4.65;;
69573;SDS011;62840;52.366;5.980;2022-11-15T11:02:08;9.07;;;4.43;;
69573;SDS011;62840;52.366;5.980;2022-11-15T11:04:58;8.00;;;3.95;;
69573;SDS011;62840;52.366;5.980;2022-11-15T11:07:26;8.48;;;4.38;;
69573;SDS011;62840;52.366;5.980;2022-11-15T11:09:59;8.98;;;4.07;;
69573;SDS011;62840;52.366;5.980;2022-11-15T11:12:29;8.02;;;3.80;;
69573;SDS011;62840;52.366;5.980;2022-11-15T11:14:57;8.20;;;4.03;;
69573;SDS011;62840;52.366;5.980;2022-11-15T11:17:29;7.13;;;3.40;;
69573;SDS011;62840;52.366;5.980;2022-11-15T11:20:18;6.88;;;3.67;;
69573;SDS011;62840;52.366;5.980;2022-11-15T11:22:58;8.40;;;3.70;;
69573;SDS011;62840;52.366;5.980;2022-11-15T11:25:39;8.15;;;3.40;;
69573;SDS011;62840;52.366;5.980;2022-11-15T11:28:26;6.80;;;3.97;;
69573;SDS011;62840;52.366;5.980;2022-11-15T11:31:11;8.45;;;3.65;;
69573;SDS011;62840;52.366;5.980;2022-11-15T11:33:50;7.53;;;4.05;;
69573;SDS011;62840;52.366;5.980;2022-11-15T11:36:35;6.22;;;3.53;;
69573;SDS011;62840;52.366;5.980;2022-11-15T11:39:18;6.28;;;3.22;;
69573;SDS011;62840;52.366;5.980;2022-11-15T11:41:59;6.15;;;3.28;;
69573;SDS011;62840;52.366;5.980;2022-11-15T11:44:38;6.40;;;3.20;;
69573;SDS011;62840;52.366;5.980;2022-11-15T11:47:21;6.05;;;3.03;;
69573;SDS011;62840;52.366;5.980;2022-11-15T11:49:50;5.47;;;3.00;;
69573;SDS011;62840;52.366;5.980;2022-11-15T11:52:24;7.82;;;2.90;;
69573;SDS011;62840;52.366;5.980;2022-11-15T11:54:59;5.75;;;2.75;;
69573;SDS011;62840;52.366;5.980;2022-11-15T11:57:38;5.78;;;2.53;;
69573;SDS011;62840;52.366;5.980;2022-11-15T12:00:14;5.53;;;2.78;;
69573;SDS011;62840;52.366;5.980;2022-11-15T12:02:45;5.53;;;2.50;;
69573;SDS011;62840;52.366;5.980;2022-11-15T12:05:27;4.60;;;2.20;;
69573;SDS011;62840;52.366;5.980;2022-11-15T12:08:03;5.03;;;2.13;;
69573;SDS011;62840;52.366;5.980;2022-11-15T12:10:48;5.18;;;2.30;;
69573;SDS011;62840;52.366;5.980;2022-11-15T12:13:25;4.63;;;2.55;;
69573;SDS011;62840;52.366;5.980;2022-11-15T12:15:56;5.88;;;2.35;;
69573;SDS011;62840;52.366;5.980;2022-11-15T12:18:32;5.05;;;2.30;;
69573;SDS011;62840;52.366;5.980;2022-11-15T12:21:01;5.57;;;2.50;;
69573;SDS011;62840;52.366;5.980;2022-11-15T12:23:44;4.45;;;2.20;;
69573;SDS011;62840;52.366;5.980;2022-11-15T12:26:18;4.45;;;2.28;;
69573;SDS011;62840;52.366;5.980;2022-11-15T12:28:50;5.10;;;2.35;;
69573;SDS011;62840;52.366;5.980;2022-11-15T12:31:22;4.53;;;2.65;;
69573;SDS011;62840;52.366;5.980;2022-11-15T12:34:02;5.28;;;2.10;;
69573;SDS011;62840;52.366;5.980;2022-11-15T12:36:53;4.38;;;2.17;;
69573;SDS011;62840;52.366;5.980;2022-11-15T12:39:22;5.10;;;2.28;;
69573;SDS011;62840;52.366;5.980;2022-11-15T12:42:42;5.10;;;1.67;;
69573;SDS011;62840;52.366;5.980;2022-11-15T12:45:28;4.70;;;1.70;;
69573;SDS011;62840;52.366;5.980;2022-11-15T12:48:20;4.30;;;1.75;;
69573;SDS011;62840;52.366;5.980;2022-11-15T12:51:23;6.03;;;1.80;;
69573;SDS011;62840;52.366;5.980;2022-11-15T12:57:33;4.28;;;1.70;;
69573;SDS011;62840;52.366;5.980;2022-11-15T13:09:02;4.10;;;1.42;;
69573;SDS011;62840;52.366;5.980;2022-11-15T13:17:22;4.55;;;1.33;;
69573;SDS011;62840;52.366;5.980;2022-11-15T13:19:58;3.92;;;1.50;;
69573;SDS011;62840;52.366;5.980;2022-11-15T13:22:40;7.22;;;1.50;;
69573;SDS011;62840;52.366;5.980;2022-11-15T13:25:18;4.65;;;1.60;;
69573;SDS011;62840;52.366;5.980;2022-11-15T13:28:09;3.35;;;1.40;;
69573;SDS011;62840;52.366;5.980;2022-11-15T13:30:48;3.90;;;1.30;;
69573;SDS011;62840;52.366;5.980;2022-11-15T13:33:23;7.20;;;1.35;;
69573;SDS011;62840;52.366;5.980;2022-11-15T13:35:56;3.58;;;1.17;;
69573;SDS011;62840;52.366;5.980;2022-11-15T13:38:27;4.90;;;1.08;;
69573;SDS011;62840;52.366;5.980;2022-11-15T13:40:59;3.00;;;1.13;;
69573;SDS011;62840;52.366;5.980;2022-11-15T13:43:39;3.85;;;0.95;;
69573;SDS011;62840;52.366;5.980;2022-11-15T13:46:05;4.63;;;1.30;;
69573;SDS011;62840;52.366;5.980;2022-11-15T13:48:35;3.08;;;0.98;;
69573;SDS011;62840;52.366;5.980;2022-11-15T13:51:02;2.75;;;1.00;;
69573;SDS011;62840;52.366;5.980;2022-11-15T13:53:33;3.42;;;1.00;;
69573;SDS011;62840;52.366;5.980;2022-11-15T13:56:07;4.03;;;1.08;;
69573;SDS011;62840;52.366;5.980;2022-11-15T13:58:36;7.37;;;1.50;;
69573;SDS011;62840;52.366;5.980;2022-11-15T14:01:04;3.45;;;1.15;;
69573;SDS011;62840;52.366;5.980;2022-11-15T14:03:31;2.67;;;1.00;;
69573;SDS011;62840;52.366;5.980;2022-11-15T14:06:06;2.90;;;0.75;;
69573;SDS011;62840;52.366;5.980;2022-11-15T14:08:35;4.20;;;1.70;;
69573;SDS011;62840;52.366;5.980;2022-11-15T14:11:12;4.17;;;1.03;;
69573;SDS011;62840;52.366;5.980;2022-11-15T14:14:02;3.67;;;0.90;;
69573;SDS011;62840;52.366;5.980;2022-11-15T14:16:39;3.80;;;1.00;;
69573;SDS011;62840;52.366;5.980;2022-11-15T14:19:09;3.75;;;1.00;;
69573;SDS011;62840;52.366;5.980;2022-11-15T14:24:39;5.73;;;1.30;;
69573;SDS011;62840;52.366;5.980;2022-11-15T14:27:23;6.18;;;1.40;;
69573;SDS011;62840;52.366;5.980;2022-11-15T14:29:51;4.50;;;1.27;;
69573;SDS011;62840;52.366;5.980;2022-11-15T14:32:18;6.75;;;1.10;;
69573;SDS011;62840;52.366;5.980;2022-11-15T14:34:47;3.95;;;1.15;;
69573;SDS011;62840;52.366;5.980;2022-11-15T14:37:19;3.93;;;0.90;;
69573;SDS011;62840;52.366;5.980;2022-11-15T14:39:47;3.92;;;1.15;;
69573;SDS011;62840;52.366;5.980;2022-11-15T14:42:14;3.05;;;1.00;;
69573;SDS011;62840;52.366;5.980;2022-11-15T14:44:42;3.83;;;1.10;;
69573;SDS011;62840;52.366;5.980;2022-11-15T14:47:08;3.13;;;1.20;;
69573;SDS011;62840;52.366;5.980;2022-11-15T14:49:34;3.30;;;1.00;;
69573;SDS011;62840;52.366;5.980;2022-11-15T14:52:00;4.07;;;1.17;;
69573;SDS011;62840;52.366;5.980;2022-11-15T14:54:26;3.73;;;1.33;;
69573;SDS011;62840;52.366;5.980;2022-11-15T14:56:51;12.32;;;2.53;;
69573;SDS011;62840;52.366;5.980;2022-11-15T14:59:17;3.43;;;1.30;;
69573;SDS011;62840;52.366;5.980;2022-11-15T15:01:45;4.28;;;1.20;;
69573;SDS011;62840;52.366;5.980;2022-11-15T15:04:11;4.45;;;1.70;;
69573;SDS011;62840;52.366;5.980;2022-11-15T15:06:37;4.20;;;1.38;;
69573;SDS011;62840;52.366;5.980;2022-11-15T15:09:03;4.90;;;1.45;;
69573;SDS011;62840;52.366;5.980;2022-11-15T15:11:30;3.90;;;1.43;;
69573;SDS011;62840;52.366;5.980;2022-11-15T15:13:57;6.40;;;1.55;;
69573;SDS011;62840;52.366;5.980;2022-11-15T15:16:23;4.10;;;1.33;;
69573;SDS011;62840;52.366;5.980;2022-11-15T15:18:52;3.45;;;1.48;;
69573;SDS011;62840;52.366;5.980;2022-11-15T15:21:19;4.50;;;1.38;;
69573;SDS011;62840;52.366;5.980;2022-11-15T15:23:48;4.35;;;1.40;;
69573;SDS011;62840;52.366;5.980;2022-11-15T15:26:14;4.60;;;1.52;;
69573;SDS011;62840;52.366;5.980;2022-11-15T15:28:41;4.97;;;1.67;;